sensor_id;sensor_type;location;lat;lon;timestamp;pressure;altitude;pressure_sealevel;temperature;humidity
28181;BME280;15464;50.988;10.318;2023-03-04T00:02:16;99584.31;;;0.48;93.29
28181;BME280;15464;50.988;10.318;2023-03-04T00:04:43;99584.09;;;0.54;93.16
28181;BME280;15464;50.988;10.318;2023-03-04T00:07:09;99589.19;;;0.57;93.56
28181;BME280;15464;50.988;10.318;2023-03-04T00:09:36;99584.84;;;0.57;92.95
28181;BME280;15464;50.988;10.318;2023-03-04T00:12:03;99581.28;;;0.60;93.09
28181;BME280;15464;50.988;10.318;2023-03-04T00:14:30;99585.56;;;0.62;92.59
28181;BME280;15464;50.988;10.318;2023-03-04T00:16:56;99584.63;;;0.63;92.89
28181;BME280;15464;50.988;10.318;2023-03-04T00:19:23;99586.31;;;0.64;93.02
28181;BME280;15464;50.988;10.318;2023-03-04T00:21:50;99582.94;;;0.62;92.92
28181;BME280;15464;50.988;10.318;2023-03-04T00:24:16;99581.31;;;0.58;93.24
28181;BME280;15464;50.988;10.318;2023-03-04T00:26:43;99575.47;;;0.52;93.16
28181;BME280;15464;50.988;10.318;2023-03-04T00:29:09;99584.09;;;0.54;93.53
28181;BME280;15464;50.988;10.318;2023-03-04T00:31:36;99575.38;;;0.55;93.09
28181;BME280;15464;50.988;10.318;2023-03-04T00:34:03;99581.31;;;0.58;93.37
28181;BME280;15464;50.988;10.318;2023-03-04T00:36:29;99586.66;;;0.55;92.92
28181;BME280;15464;50.988;10.318;2023-03-04T00:38:56;99581.31;;;0.58;92.76
28181;BME280;15464;50.988;10.318;2023-03-04T00:41:23;99576.97;;;0.59;92.97
28181;BME280;15464;50.988;10.318;2023-03-04T00:43:50;99579.41;;;0.63;92.36
28181;BME280;15464;50.988;10.318;2023-03-04T00:46:16;99574.19;;;0.63;92.57
28181;BME280;15464;50.988;10.318;2023-03-04T00:48:43;99568.00;;;0.66;92.61
28181;BME280;15464;50.988;10.318;2023-03-04T00:51:10;99561.03;;;0.66;92.75
28181;BME280;15464;50.988;10.318;2023-03-04T00:53:36;99566.09;;;0.71;92.61
28181;BME280;15464;50.988;10.318;2023-03-04T00:56:03;99549.69;;;0.67;92.36
28181;BME280;15464;50.988;10.318;2023-03-04T00:58:30;99552.34;;;0.66;92.54
28181;BME280;15464;50.988;10.318;2023-03-04T01:00:57;99556.94;;;0.59;92.73
28181;BME280;15464;50.988;10.318;2023-03-04T01:03:23;99558.66;;;0.60;92.52
28181;BME280;15464;50.988;10.318;2023-03-04T01:05:52;99547.31;;;0.61;92.50
28181;BME280;15464;50.988;10.318;2023-03-04T01:08:19;99550.63;;;0.65;92.67
28181;BME280;15464;50.988;10.318;2023-03-04T01:10:45;99539.34;;;0.64;92.27
28181;BME280;15464;50.988;10.318;2023-03-04T01:13:13;99541.06;;;0.65;92.81
28181;BME280;15464;50.988;10.318;2023-03-04T01:15:40;99535.63;;;0.71;91.86
28181;BME280;15464;50.988;10.318;2023-03-04T01:18:07;99530.53;;;0.68;92.04
28181;BME280;15464;50.988;10.318;2023-03-04T01:20:34;99529.44;;;0.74;91.91
28181;BME280;15464;50.988;10.318;2023-03-04T01:23:00;99531.03;;;0.78;91.15
28181;BME280;15464;50.988;10.318;2023-03-04T01:25:27;99534.53;;;0.77;91.37
28181;BME280;15464;50.988;10.318;2023-03-04T01:27:55;99527.78;;;0.71;91.44
28181;BME280;15464;50.988;10.318;2023-03-04T01:30:22;99525.22;;;0.70;91.78
28181;BME280;15464;50.988;10.318;2023-03-04T01:32:48;99522.09;;;0.60;91.71
28181;BME280;15464;50.988;10.318;2023-03-04T01:35:15;99527.09;;;0.66;91.99
28181;BME280;15464;50.988;10.318;2023-03-04T01:37:42;99520.75;;;0.73;91.22
28181;BME280;15464;50.988;10.318;2023-03-04T01:40:09;99517.50;;;0.67;91.79
28181;BME280;15464;50.988;10.318;2023-03-04T01:42:36;99517.69;;;0.62;91.26
28181;BME280;15464;50.988;10.318;2023-03-04T01:45:04;99505.25;;;0.69;91.51
28181;BME280;15464;50.988;10.318;2023-03-04T01:47:32;99507.75;;;0.72;91.22
28181;BME280;15464;50.988;10.318;2023-03-04T01:50:02;99506.81;;;0.74;91.02
28181;BME280;15464;50.988;10.318;2023-03-04T01:52:30;99502.25;;;0.79;91.23
28181;BME280;15464;50.988;10.318;2023-03-04T01:54:56;99492.53;;;0.83;90.78
28181;BME280;15464;50.988;10.318;2023-03-04T01:57:25;99486.47;;;0.82;90.70
28181;BME280;15464;50.988;10.318;2023-03-04T02:00:17;99488.97;;;0.86;90.45
28181;BME280;15464;50.988;10.318;2023-03-04T02:02:52;99489.94;;;0.83;90.68
28181;BME280;15464;50.988;10.318;2023-03-04T02:05:20;99486.59;;;0.79;90.21
28181;BME280;15464;50.988;10.318;2023-03-04T02:07:48;99486.63;;;0.78;89.97
28181;BME280;15464;50.988;10.318;2023-03-04T02:10:16;99481.47;;;0.76;89.81
28181;BME280;15464;50.988;10.318;2023-03-04T02:12:43;99476.91;;;0.81;90.20
28181;BME280;15464;50.988;10.318;2023-03-04T02:15:10;99473.31;;;0.86;90.21
28181;BME280;15464;50.988;10.318;2023-03-04T02:17:37;99465.28;;;0.90;89.21
28181;BME280;15464;50.988;10.318;2023-03-04T02:26:35;99467.84;;;0.92;89.61
28181;BME280;15464;50.988;10.318;2023-03-04T02:28:36;99466.03;;;0.94;89.72
28181;BME280;15464;50.988;10.318;2023-03-04T02:31:03;99468.66;;;0.94;89.45
28181;BME280;15464;50.988;10.318;2023-03-04T02:33:31;99458.06;;;0.97;89.50
28181;BME280;15464;50.988;10.318;2023-03-04T02:35:58;99466.72;;;0.99;89.08
28181;BME280;15464;50.988;10.318;2023-03-04T02:38:25;99461.50;;;0.99;89.32
28181;BME280;15464;50.988;10.318;2023-03-04T02:40:53;99455.41;;;0.98;89.26
28181;BME280;15464;50.988;10.318;2023-03-04T02:43:21;99455.47;;;0.97;89.34
28181;BME280;15464;50.988;10.318;2023-03-04T02:45:50;99450.19;;;0.98;89.35
28181;BME280;15464;50.988;10.318;2023-03-04T02:48:20;99449.19;;;1.01;89.57
28181;BME280;15464;50.988;10.318;2023-03-04T02:50:50;99444.78;;;1.03;88.95
28181;BME280;15464;50.988;10.318;2023-03-04T02:53:18;99448.06;;;1.08;88.55
28181;BME280;15464;50.988;10.318;2023-03-04T02:55:50;99447.81;;;1.14;88.28
28181;BME280;15464;50.988;10.318;2023-03-04T02:58:17;99441.81;;;1.12;88.07
28181;BME280;15464;50.988;10.318;2023-03-04T03:00:44;99437.50;;;1.11;88.63
28181;BME280;15464;50.988;10.318;2023-03-04T03:03:10;99441.69;;;1.15;88.49
28181;BME280;15464;50.988;10.318;2023-03-04T03:05:38;99436.47;;;1.15;87.96
28181;BME280;15464;50.988;10.318;2023-03-04T03:08:05;99435.75;;;1.11;88.10
28181;BME280;15464;50.988;10.318;2023-03-04T03:10:32;99431.47;;;1.09;88.08
28181;BME280;15464;50.988;10.318;2023-03-04T03:12:59;99428.91;;;1.07;88.11
28181;BME280;15464;50.988;10.318;2023-03-04T03:15:26;99433.28;;;1.07;88.01
28181;BME280;15464;50.988;10.318;2023-03-04T03:17:52;99433.28;;;1.07;87.53
28181;BME280;15464;50.988;10.318;2023-03-04T03:20:19;99426.25;;;1.09;87.93
28181;BME280;15464;50.988;10.318;2023-03-04T03:22:46;99421.84;;;1.11;88.09
28181;BME280;15464;50.988;10.318;2023-03-04T03:25:13;99429.53;;;1.14;87.85
28181;BME280;15464;50.988;10.318;2023-03-04T03:27:40;99420.94;;;1.12;87.34
28181;BME280;15464;50.988;10.318;2023-03-04T03:30:11;99419.94;;;1.14;87.19
28181;BME280;15464;50.988;10.318;2023-03-04T03:32:38;99424.19;;;1.17;87.04
28181;BME280;15464;50.988;10.318;2023-03-04T03:35:05;99430.28;;;1.17;86.79
28181;BME280;15464;50.988;10.318;2023-03-04T03:37:32;99425.78;;;1.21;86.61
28181;BME280;15464;50.988;10.318;2023-03-04T03:39:58;99416.22;;;1.20;85.97
28181;BME280;15464;50.988;10.318;2023-03-04T03:42:25;99417.88;;;1.23;86.64
28181;BME280;15464;50.988;10.318;2023-03-04T03:44:52;99427.47;;;1.22;86.44
28181;BME280;15464;50.988;10.318;2023-03-04T03:47:18;99418.91;;;1.18;86.89
28181;BME280;15464;50.988;10.318;2023-03-04T03:49:45;99409.25;;;1.20;86.21
28181;BME280;15464;50.988;10.318;2023-03-04T03:52:12;99421.41;;;1.21;86.74
28181;BME280;15464;50.988;10.318;2023-03-04T03:54:38;99430.09;;;1.22;86.52
28181;BME280;15464;50.988;10.318;2023-03-04T03:57:05;99421.34;;;1.23;86.80
28181;BME280;15464;50.988;10.318;2023-03-04T03:59:32;99435.06;;;1.28;86.73
28181;BME280;15464;50.988;10.318;2023-03-04T04:01:58;99432.56;;;1.25;86.04
28181;BME280;15464;50.988;10.318;2023-03-04T04:04:25;99422.00;;;1.28;86.05
28181;BME280;15464;50.988;10.318;2023-03-04T04:06:52;99425.41;;;1.30;86.08
28181;BME280;15464;50.988;10.318;2023-03-04T04:09:19;99435.72;;;1.33;85.89
28181;BME280;15464;50.988;10.318;2023-03-04T04:11:45;99420.06;;;1.33;85.39
28181;BME280;15464;50.988;10.318;2023-03-04T04:14:13;99423.41;;;1.37;85.00
28181;BME280;15464;50.988;10.318;2023-03-04T04:16:40;99421.66;;;1.37;85.16
28181;BME280;15464;50.988;10.318;2023-03-04T04:19:07;99419.69;;;1.42;85.01
28181;BME280;15464;50.988;10.318;2023-03-04T04:21:34;99430.16;;;1.42;84.90
28181;BME280;15464;50.988;10.318;2023-03-04T04:24:01;99422.16;;;1.45;85.33
28181;BME280;15464;50.988;10.318;2023-03-04T04:26:28;99418.78;;;1.43;85.27
28181;BME280;15464;50.988;10.318;2023-03-04T04:28:54;99416.28;;;1.40;84.99
28181;BME280;15464;50.988;10.318;2023-03-04T04:31:21;99418.09;;;1.38;84.81
28181;BME280;15464;50.988;10.318;2023-03-04T04:33:47;99421.50;;;1.40;84.81
28181;BME280;15464;50.988;10.318;2023-03-04T04:36:15;99417.94;;;1.43;85.00
28181;BME280;15464;50.988;10.318;2023-03-04T04:38:42;99415.38;;;1.41;85.68
28181;BME280;15464;50.988;10.318;2023-03-04T04:41:24;99415.22;;;1.44;84.98
28181;BME280;15464;50.988;10.318;2023-03-04T04:43:51;99419.38;;;1.50;84.73
28181;BME280;15464;50.988;10.318;2023-03-04T04:46:19;99411.41;;;1.53;84.67
28181;BME280;15464;50.988;10.318;2023-03-04T04:48:46;99407.03;;;1.53;84.71
28181;BME280;15464;50.988;10.318;2023-03-04T04:51:13;99408.72;;;1.54;84.69
28181;BME280;15464;50.988;10.318;2023-03-04T04:53:40;99403.31;;;1.59;84.34
28181;BME280;15464;50.988;10.318;2023-03-04T04:56:11;99403.34;;;1.57;84.05
28181;BME280;15464;50.988;10.318;2023-03-04T04:58:38;99402.66;;;1.54;84.48
28181;BME280;15464;50.988;10.318;2023-03-04T05:01:05;99407.88;;;1.54;85.09
28181;BME280;15464;50.988;10.318;2023-03-04T05:03:33;99403.50;;;1.54;84.86
28181;BME280;15464;50.988;10.318;2023-03-04T05:06:01;99401.66;;;1.56;84.61
28181;BME280;15464;50.988;10.318;2023-03-04T05:08:28;99407.56;;;1.61;84.85
28181;BME280;15464;50.988;10.318;2023-03-04T05:10:55;99414.63;;;1.59;85.26
28181;BME280;15464;50.988;10.318;2023-03-04T05:13:22;99413.72;;;1.60;84.62
28181;BME280;15464;50.988;10.318;2023-03-04T05:15:53;99406.88;;;1.56;84.93
28181;BME280;15464;50.988;10.318;2023-03-04T05:18:22;99410.25;;;1.60;84.07
28181;BME280;15464;50.988;10.318;2023-03-04T05:20:53;99410.03;;;1.65;83.87
28181;BME280;15464;50.988;10.318;2023-03-04T05:23:21;99413.44;;;1.67;83.95
28181;BME280;15464;50.988;10.318;2023-03-04T05:25:48;99411.75;;;1.66;84.15
28181;BME280;15464;50.988;10.318;2023-03-04T05:28:15;99411.75;;;1.66;84.74
28181;BME280;15464;50.988;10.318;2023-03-04T05:30:43;99416.97;;;1.66;84.51
28181;BME280;15464;50.988;10.318;2023-03-04T05:33:12;99414.25;;;1.69;84.42
28181;BME280;15464;50.988;10.318;2023-03-04T05:35:40;99409.94;;;1.68;84.42
28181;BME280;15464;50.988;10.318;2023-03-04T05:38:09;99409.84;;;1.69;83.68
28181;BME280;15464;50.988;10.318;2023-03-04T05:40:36;99404.75;;;1.66;84.09
28181;BME280;15464;50.988;10.318;2023-03-04T05:43:04;99411.84;;;1.62;84.66
28181;BME280;15464;50.988;10.318;2023-03-04T05:45:31;99416.13;;;1.65;84.59
28181;BME280;15464;50.988;10.318;2023-03-04T05:47:57;99416.88;;;1.69;84.02
28181;BME280;15464;50.988;10.318;2023-03-04T05:50:25;99419.38;;;1.70;83.59
28181;BME280;15464;50.988;10.318;2023-03-04T05:52:52;99414.25;;;1.69;84.13
28181;BME280;15464;50.988;10.318;2023-03-04T05:55:18;99418.63;;;1.68;83.98
28181;BME280;15464;50.988;10.318;2023-03-04T05:57:46;99424.44;;;1.75;84.00
28181;BME280;15464;50.988;10.318;2023-03-04T06:00:14;99416.88;;;1.69;84.53
28181;BME280;15464;50.988;10.318;2023-03-04T06:02:42;99422.09;;;1.69;84.16
28181;BME280;15464;50.988;10.318;2023-03-04T06:05:10;99436.84;;;1.70;84.51
28181;BME280;15464;50.988;10.318;2023-03-04T06:07:37;99423.66;;;1.73;84.36
28181;BME280;15464;50.988;10.318;2023-03-04T06:10:05;99436.78;;;1.71;84.17
28181;BME280;15464;50.988;10.318;2023-03-04T06:12:33;99427.22;;;1.70;84.25
28181;BME280;15464;50.988;10.318;2023-03-04T06:14:59;99426.91;;;1.78;83.78
28181;BME280;15464;50.988;10.318;2023-03-04T06:17:28;99426.06;;;1.77;84.18
28181;BME280;15464;50.988;10.318;2023-03-04T06:19:55;99428.56;;;1.80;83.40
28181;BME280;15464;50.988;10.318;2023-03-04T06:22:22;99424.84;;;1.86;83.09
28181;BME280;15464;50.988;10.318;2023-03-04T06:24:48;99429.91;;;1.89;83.13
28181;BME280;15464;50.988;10.318;2023-03-04T06:27:15;99428.22;;;1.88;83.06
28181;BME280;15464;50.988;10.318;2023-03-04T06:29:42;99428.41;;;1.83;83.60
28181;BME280;15464;50.988;10.318;2023-03-04T06:32:09;99426.53;;;1.87;83.36
28181;BME280;15464;50.988;10.318;2023-03-04T06:34:36;99429.81;;;1.92;83.18
28181;BME280;15464;50.988;10.318;2023-03-04T06:37:02;99431.50;;;1.93;83.54
28181;BME280;15464;50.988;10.318;2023-03-04T06:39:29;99435.75;;;1.95;83.54
28181;BME280;15464;50.988;10.318;2023-03-04T06:41:56;99434.78;;;1.98;83.25
28181;BME280;15464;50.988;10.318;2023-03-04T06:44:22;99429.88;;;1.90;83.78
28181;BME280;15464;50.988;10.318;2023-03-04T06:46:49;99432.28;;;1.95;83.37
28181;BME280;15464;50.988;10.318;2023-03-04T06:49:16;99439.09;;;1.99;83.41
28181;BME280;15464;50.988;10.318;2023-03-04T06:51:43;99436.47;;;1.99;83.65
28181;BME280;15464;50.988;10.318;2023-03-04T06:54:09;99442.31;;;2.06;83.07
28181;BME280;15464;50.988;10.318;2023-03-04T06:56:36;99430.72;;;2.11;83.05
28181;BME280;15464;50.988;10.318;2023-03-04T06:59:03;99438.56;;;2.11;83.33
28181;BME280;15464;50.988;10.318;2023-03-04T07:01:29;99435.81;;;2.14;83.43
28181;BME280;15464;50.988;10.318;2023-03-04T07:03:56;99439.47;;;2.10;83.76
28181;BME280;15464;50.988;10.318;2023-03-04T07:06:25;99432.28;;;2.15;83.07
28181;BME280;15464;50.988;10.318;2023-03-04T07:08:56;99427.03;;;2.15;83.51
28181;BME280;15464;50.988;10.318;2023-03-04T07:11:24;99430.56;;;2.14;83.78
28181;BME280;15464;50.988;10.318;2023-03-04T07:13:51;99426.25;;;2.13;83.71
28181;BME280;15464;50.988;10.318;2023-03-04T07:16:20;99433.06;;;2.17;83.87
28181;BME280;15464;50.988;10.318;2023-03-04T07:18:47;99431.31;;;2.18;83.00
28181;BME280;15464;50.988;10.318;2023-03-04T07:21:15;99438.09;;;2.22;83.43
28181;BME280;15464;50.988;10.318;2023-03-04T07:23:42;99437.25;;;2.21;83.15
28181;BME280;15464;50.988;10.318;2023-03-04T07:26:09;99438.16;;;2.20;83.62
28181;BME280;15464;50.988;10.318;2023-03-04T07:28:36;99443.00;;;2.29;83.11
28181;BME280;15464;50.988;10.318;2023-03-04T07:31:11;99439.66;;;2.26;83.37
28181;BME280;15464;50.988;10.318;2023-03-04T07:33:39;99443.13;;;2.26;83.66
28181;BME280;15464;50.988;10.318;2023-03-04T07:36:05;99448.19;;;2.31;83.88
28181;BME280;15464;50.988;10.318;2023-03-04T07:38:32;99456.84;;;2.31;83.33
28181;BME280;15464;50.988;10.318;2023-03-04T07:40:59;99458.56;;;2.32;83.22
28181;BME280;15464;50.988;10.318;2023-03-04T07:43:26;99465.44;;;2.35;82.96
28181;BME280;15464;50.988;10.318;2023-03-04T07:45:58;99465.38;;;2.36;82.80
28181;BME280;15464;50.988;10.318;2023-03-04T07:48:25;99457.44;;;2.38;82.82
28181;BME280;15464;50.988;10.318;2023-03-04T07:53:39;99465.22;;;2.39;82.65
28181;BME280;15464;50.988;10.318;2023-03-04T07:56:07;99460.84;;;2.40;82.92
28181;BME280;15464;50.988;10.318;2023-03-04T07:58:34;99464.25;;;2.42;82.72
28181;BME280;15464;50.988;10.318;2023-03-04T08:01:07;99459.94;;;2.41;82.92
28181;BME280;15464;50.988;10.318;2023-03-04T08:03:34;99449.88;;;2.51;82.43
28181;BME280;15464;50.988;10.318;2023-03-04T08:06:04;99453.19;;;2.56;82.08
28181;BME280;15464;50.988;10.318;2023-03-04T08:08:31;99453.19;;;2.56;81.95
28181;BME280;15464;50.988;10.318;2023-03-04T08:10:57;99456.44;;;2.61;81.98
28181;BME280;15464;50.988;10.318;2023-03-04T08:13:24;99457.34;;;2.60;82.60
28181;BME280;15464;50.988;10.318;2023-03-04T08:15:51;99453.81;;;2.61;82.33
28181;BME280;15464;50.988;10.318;2023-03-04T08:18:18;99451.56;;;2.72;82.12
28181;BME280;15464;50.988;10.318;2023-03-04T08:20:44;99455.72;;;2.76;82.44
28181;BME280;15464;50.988;10.318;2023-03-04T08:23:11;99451.63;;;2.70;82.23
28181;BME280;15464;50.988;10.318;2023-03-04T08:25:39;99450.47;;;2.76;81.94
28181;BME280;15464;50.988;10.318;2023-03-04T08:28:07;99455.44;;;2.82;81.99
28181;BME280;15464;50.988;10.318;2023-03-04T08:30:35;99454.31;;;2.88;82.16
28181;BME280;15464;50.988;10.318;2023-03-04T08:33:02;99440.56;;;2.82;82.08
28181;BME280;15464;50.988;10.318;2023-03-04T08:35:29;99444.69;;;2.88;81.84
28181;BME280;15464;50.988;10.318;2023-03-04T08:37:56;99442.00;;;2.90;81.94
28181;BME280;15464;50.988;10.318;2023-03-04T08:40:24;99444.97;;;3.01;81.37
28181;BME280;15464;50.988;10.318;2023-03-04T08:42:52;99436.25;;;3.00;81.69
28181;BME280;15464;50.988;10.318;2023-03-04T08:45:19;99432.25;;;2.93;81.29
28181;BME280;15464;50.988;10.318;2023-03-04T08:47:45;99436.06;;;3.05;81.76
28181;BME280;15464;50.988;10.318;2023-03-04T08:50:12;99434.19;;;3.07;81.13
28181;BME280;15464;50.988;10.318;2023-03-04T08:52:39;99431.16;;;3.16;81.62
28181;BME280;15464;50.988;10.318;2023-03-04T08:55:06;99428.84;;;3.27;81.24
28181;BME280;15464;50.988;10.318;2023-03-04T08:57:33;99419.84;;;3.33;80.85
28181;BME280;15464;50.988;10.318;2023-03-04T09:00:00;99417.84;;;3.38;80.89
28181;BME280;15464;50.988;10.318;2023-03-04T09:02:27;99415.88;;;3.43;79.63
28181;BME280;15464;50.988;10.318;2023-03-04T09:04:54;99410.16;;;3.52;79.43
28181;BME280;15464;50.988;10.318;2023-03-04T09:07:20;99413.72;;;3.51;79.21
28181;BME280;15464;50.988;10.318;2023-03-04T09:09:47;99409.25;;;3.70;79.11
28181;BME280;15464;50.988;10.318;2023-03-04T09:12:14;99406.53;;;3.89;78.42
28181;BME280;15464;50.988;10.318;2023-03-04T09:14:40;99407.56;;;3.86;77.89
28181;BME280;15464;50.988;10.318;2023-03-04T09:17:07;99408.94;;;3.76;76.73
28181;BME280;15464;50.988;10.318;2023-03-04T09:19:35;99411.50;;;3.78;77.66
28181;BME280;15464;50.988;10.318;2023-03-04T09:22:02;99410.72;;;3.93;78.06
28181;BME280;15464;50.988;10.318;2023-03-04T09:24:29;99410.34;;;3.83;76.64
28181;BME280;15464;50.988;10.318;2023-03-04T09:26:55;99413.34;;;3.93;78.41
28181;BME280;15464;50.988;10.318;2023-03-04T09:29:22;99406.38;;;4.09;77.54
28181;BME280;15464;50.988;10.318;2023-03-04T09:31:49;99406.91;;;4.16;76.97
28181;BME280;15464;50.988;10.318;2023-03-04T09:34:16;99407.00;;;4.14;76.80
28181;BME280;15464;50.988;10.318;2023-03-04T09:36:43;99417.44;;;3.98;75.69
28181;BME280;15464;50.988;10.318;2023-03-04T09:39:09;99418.59;;;4.10;77.09
28181;BME280;15464;50.988;10.318;2023-03-04T09:41:41;99414.66;;;4.01;77.19
28181;BME280;15464;50.988;10.318;2023-03-04T09:44:29;99407.06;;;4.13;76.69
28181;BME280;15464;50.988;10.318;2023-03-04T09:47:00;99411.56;;;4.11;76.60
28181;BME280;15464;50.988;10.318;2023-03-04T09:49:29;99411.25;;;4.17;76.52
28181;BME280;15464;50.988;10.318;2023-03-04T09:52:02;99409.56;;;3.98;77.29
28181;BME280;15464;50.988;10.318;2023-03-04T09:57:03;99405.22;;;4.15;76.54
28181;BME280;15464;50.988;10.318;2023-03-04T09:59:42;99397.63;;;4.26;77.17
28181;BME280;15464;50.988;10.318;2023-03-04T10:02:28;99399.59;;;4.38;76.91
28181;BME280;15464;50.988;10.318;2023-03-04T10:04:59;99403.41;;;4.32;76.60
28181;BME280;15464;50.988;10.318;2023-03-04T10:07:34;99406.81;;;4.50;76.21
28181;BME280;15464;50.988;10.318;2023-03-04T10:10:06;99392.03;;;4.65;76.50
28181;BME280;15464;50.988;10.318;2023-03-04T10:12:38;99394.66;;;4.49;75.98
28181;BME280;15464;50.988;10.318;2023-03-04T10:15:21;99395.50;;;4.65;74.96
28181;BME280;15464;50.988;10.318;2023-03-04T10:17:51;99386.84;;;4.63;75.50
28181;BME280;15464;50.988;10.318;2023-03-04T10:20:25;99394.72;;;4.63;75.36
28181;BME280;15464;50.988;10.318;2023-03-04T10:22:58;99399.41;;;4.58;75.13
28181;BME280;15464;50.988;10.318;2023-03-04T10:25:30;99391.25;;;4.47;75.40
28181;BME280;15464;50.988;10.318;2023-03-04T10:28:05;99390.72;;;4.56;76.14
28181;BME280;15464;50.988;10.318;2023-03-04T10:33:21;99389.78;;;4.74;74.59
28181;BME280;15464;50.988;10.318;2023-03-04T10:38:44;99398.56;;;4.73;75.40
28181;BME280;15464;50.988;10.318;2023-03-04T10:41:20;99384.22;;;4.63;75.35
28181;BME280;15464;50.988;10.318;2023-03-04T10:44:04;99391.38;;;4.61;75.57
28181;BME280;15464;50.988;10.318;2023-03-04T10:46:42;99390.59;;;4.75;75.45
28181;BME280;15464;50.988;10.318;2023-03-04T10:49:11;99384.50;;;4.74;76.02
28181;BME280;15464;50.988;10.318;2023-03-04T10:52:14;99372.63;;;4.67;76.93
28181;BME280;15464;50.988;10.318;2023-03-04T10:57:12;99387.53;;;4.82;76.06
28181;BME280;15464;50.988;10.318;2023-03-04T10:59:48;99369.56;;;4.59;76.45
28181;BME280;15464;50.988;10.318;2023-03-04T11:02:33;99371.72;;;4.68;77.19
28181;BME280;15464;50.988;10.318;2023-03-04T11:05:17;99371.44;;;4.88;76.00
28181;BME280;15464;50.988;10.318;2023-03-04T11:15:23;99361.28;;;4.67;76.52
28181;BME280;15464;50.988;10.318;2023-03-04T11:18:03;99363.66;;;4.71;76.27
28181;BME280;15464;50.988;10.318;2023-03-04T11:20:36;99355.66;;;4.57;76.98
28181;BME280;15464;50.988;10.318;2023-03-04T11:26:05;99357.03;;;4.64;77.96
28181;BME280;15464;50.988;10.318;2023-03-04T11:28:43;99350.34;;;4.90;77.05
28181;BME280;15464;50.988;10.318;2023-03-04T11:31:15;99349.91;;;4.98;77.16
28181;BME280;15464;50.988;10.318;2023-03-04T11:36:55;99341.00;;;5.16;75.83
28181;BME280;15464;50.988;10.318;2023-03-04T11:39:30;99341.25;;;4.96;74.95
28181;BME280;15464;50.988;10.318;2023-03-04T11:45:11;99337.78;;;5.11;76.34
28181;BME280;15464;50.988;10.318;2023-03-04T12:13:51;99313.47;;;4.76;78.01
28181;BME280;15464;50.988;10.318;2023-03-04T12:27:43;99312.72;;;4.74;78.99
28181;BME280;15464;50.988;10.318;2023-03-04T12:30:39;99307.28;;;4.61;79.53
28181;BME280;15464;50.988;10.318;2023-03-04T12:35:41;99314.50;;;4.73;79.90
28181;BME280;15464;50.988;10.318;2023-03-04T12:38:41;99306.19;;;4.65;80.34
28181;BME280;15464;50.988;10.318;2023-03-04T12:44:15;99298.78;;;4.56;81.13
28181;BME280;15464;50.988;10.318;2023-03-04T12:54:57;99279.91;;;4.65;81.04
28181;BME280;15464;50.988;10.318;2023-03-04T12:57:27;99285.50;;;4.59;81.40
28181;BME280;15464;50.988;10.318;2023-03-04T13:08:25;99281.44;;;4.69;81.78
28181;BME280;15464;50.988;10.318;2023-03-04T13:28:04;99262.81;;;5.04;77.69
28181;BME280;15464;50.988;10.318;2023-03-04T13:43:36;99256.94;;;5.14;74.41
28181;BME280;15464;50.988;10.318;2023-03-04T14:06:42;99231.63;;;5.27;73.42
28181;BME280;15464;50.988;10.318;2023-03-04T14:09:18;99215.47;;;5.34;73.37
28181;BME280;15464;50.988;10.318;2023-03-04T14:11:46;99218.78;;;5.37;73.30
28181;BME280;15464;50.988;10.318;2023-03-04T14:14:24;99210.97;;;5.36;72.17
28181;BME280;15464;50.988;10.318;2023-03-04T14:16:55;99212.38;;;5.41;73.25
28181;BME280;15464;50.988;10.318;2023-03-04T14:19:32;99210.03;;;5.37;73.34
28181;BME280;15464;50.988;10.318;2023-03-04T14:22:42;99200.81;;;5.44;72.54
28181;BME280;15464;50.988;10.318;2023-03-04T14:27:45;99190.38;;;5.56;72.91
28181;BME280;15464;50.988;10.318;2023-03-04T14:30:21;99191.53;;;5.52;72.86
28181;BME280;15464;50.988;10.318;2023-03-04T14:33:08;99187.00;;;5.40;72.99
28181;BME280;15464;50.988;10.318;2023-03-04T14:35:37;99197.13;;;5.32;73.75
28181;BME280;15464;50.988;10.318;2023-03-04T14:38:39;99188.13;;;5.22;74.36
28181;BME280;15464;50.988;10.318;2023-03-04T14:41:06;99192.97;;;5.14;76.20
28181;BME280;15464;50.988;10.318;2023-03-04T14:43:40;99185.66;;;5.19;76.11
28181;BME280;15464;50.988;10.318;2023-03-04T14:46:12;99190.19;;;5.31;76.60
28181;BME280;15464;50.988;10.318;2023-03-04T14:48:46;99192.09;;;5.29;75.76
28181;BME280;15464;50.988;10.318;2023-03-04T14:54:35;99183.16;;;5.17;77.00
28181;BME280;15464;50.988;10.318;2023-03-04T14:59:46;99180.75;;;5.13;77.51
28181;BME280;15464;50.988;10.318;2023-03-04T15:02:37;99187.22;;;5.07;78.08
28181;BME280;15464;50.988;10.318;2023-03-04T15:05:24;99179.78;;;5.00;78.25
28181;BME280;15464;50.988;10.318;2023-03-04T15:08:05;99171.22;;;5.12;78.57
28181;BME280;15464;50.988;10.318;2023-03-04T15:11:01;99177.13;;;5.15;79.03
28181;BME280;15464;50.988;10.318;2023-03-04T15:13:56;99175.03;;;5.06;78.56
28181;BME280;15464;50.988;10.318;2023-03-04T15:16:25;99169.75;;;5.06;78.67
28181;BME280;15464;50.988;10.318;2023-03-04T15:19:19;99171.66;;;5.04;78.87
28181;BME280;15464;50.988;10.318;2023-03-04T15:21:48;99175.03;;;5.06;78.50
28181;BME280;15464;50.988;10.318;2023-03-04T15:24:15;99173.66;;;5.15;78.29
28181;BME280;15464;50.988;10.318;2023-03-04T15:26:42;99171.31;;;5.10;78.24
28181;BME280;15464;50.988;10.318;2023-03-04T15:29:13;99171.94;;;5.14;78.05
28181;BME280;15464;50.988;10.318;2023-03-04T15:31:41;99174.00;;;5.09;78.73
28181;BME280;15464;50.988;10.318;2023-03-04T15:34:16;99177.78;;;5.05;78.88
28181;BME280;15464;50.988;10.318;2023-03-04T15:36:45;99175.88;;;4.93;81.90
28181;BME280;15464;50.988;10.318;2023-03-04T15:39:13;99177.50;;;4.79;84.73
28181;BME280;15464;50.988;10.318;2023-03-04T15:41:41;99178.53;;;4.77;86.42
28181;BME280;15464;50.988;10.318;2023-03-04T15:44:08;99178.84;;;4.86;86.14
28181;BME280;15464;50.988;10.318;2023-03-04T15:46:35;99173.00;;;4.81;86.73
28181;BME280;15464;50.988;10.318;2023-03-04T15:49:03;99169.84;;;4.91;85.63